Time;durP1;ratioP1;P1;durP2;ratioP2;P2;SDS_P1;SDS_P2;PMS_P1;PMS_P2;Temp;Humidity;BMP_temperature;BMP_pressure;BME280_temperature;BME280_humidity;BME280_pressure;Samples;Min_cycle;Max_cycle;Signal;HPM_P1;HPM_P2
2023/05/06 00:01:04;;;;;;;;;;;20.40;47.00;;;;;;5111798;27;19971;-55
2023/05/06 00:03:30;;;;;;;;;;;20.30;46.90;;;;;;5132001;27;20414;-55
2023/05/06 00:05:55;;;;;;;;;;;20.40;47.00;;;;;;5130488;27;20018;-55
2023/05/06 00:08:21;;;;;;;;;;;20.40;46.90;;;;;;5130449;27;19919;-55
2023/05/06 00:10:46;;;;;;;;;;;20.40;46.90;;;;;;5132118;27;19912;-54
2023/05/06 00:13:12;;;;;;;;;;;20.40;47.00;;;;;;5115544;27;19988;-55
2023/05/06 00:15:37;;;;;;;;;;;20.30;47.00;;;;;;5112797;28;20468;-55
2023/05/06 00:18:03;;;;;;;;;;;20.30;46.90;;;;;;5109890;28;19970;-55
2023/05/06 00:20:28;;;;;;;;;;;20.30;46.90;;;;;;5116181;28;19984;-55
2023/05/06 00:22:54;;;;;;;;;;;20.30;46.90;;;;;;5108373;28;19911;-55
2023/05/06 00:25:19;;;;;;;;;;;20.30;47.00;;;;;;5108897;28;19920;-55
2023/05/06 00:27:45;;;;;;;;;;;20.30;47.00;;;;;;5106708;28;19919;-56
2023/05/06 00:30:10;;;;;;;;;;;20.30;47.10;;;;;;5107217;28;19915;-55
2023/05/06 00:32:36;;;;;;;;;;;20.30;47.00;;;;;;5110659;27;20006;-55
2023/05/06 00:35:02;;;;;;;;;;;20.30;47.00;;;;;;5111763;28;19916;-55
2023/05/06 00:37:27;;;;;;;;;;;20.30;47.00;;;;;;5109565;27;20391;-55
2023/05/06 00:39:53;;;;;;;;;;;20.20;47.00;;;;;;5114555;27;19928;-55
2023/05/06 00:42:21;;;;;;;;;;;20.20;47.00;;;;;;5133031;27;20010;-55
2023/05/06 00:44:46;;;;;;;;;;;20.20;47.00;;;;;;5113382;27;20317;-55
2023/05/06 00:47:12;;;;;;;;;;;20.20;47.00;;;;;;5137116;27;19920;-55
2023/05/06 00:49:37;;;;;;;;;;;20.20;47.00;;;;;;5117520;27;19922;-55
2023/05/06 00:52:03;;;;;;;;;;;20.20;47.10;;;;;;5110777;27;20427;-55
2023/05/06 00:54:28;;;;;;;;;;;20.20;47.00;;;;;;5091787;27;20418;-55
2023/05/06 00:56:54;;;;;;;;;;;20.20;47.00;;;;;;5101138;27;19917;-55
2023/05/06 00:59:20;;;;;;;;;;;20.10;47.00;;;;;;5113075;27;19923;-55
2023/05/06 01:01:46;;;;;;;;;;;20.10;47.00;;;;;;5114305;27;20329;-54
2023/05/06 01:04:11;;;;;;;;;;;20.20;47.00;;;;;;5116128;27;19954;-54
2023/05/06 01:06:43;;;;;;;;;;;20.10;47.00;;;;;;5118533;27;19911;-55
2023/05/06 01:09:13;;;;;;;;;;;20.10;47.10;;;;;;5116093;27;19934;-55
2023/05/06 01:11:47;;;;;;;;;;;20.10;46.90;;;;;;5081568;27;20295;-55
2023/05/06 01:14:16;;;;;;;;;;;20.20;47.00;;;;;;5117024;27;19915;-55
2023/05/06 01:16:43;;;;;;;;;;;20.20;46.90;;;;;;5122456;27;23714;-55
2023/05/06 01:19:08;;;;;;;;;;;20.20;46.90;;;;;;5117497;27;19911;-55
2023/05/06 01:21:34;;;;;;;;;;;20.10;46.80;;;;;;5096702;27;19915;-55
2023/05/06 01:23:59;;;;;;;;;;;20.20;46.90;;;;;;5121064;27;19915;-55
2023/05/06 01:26:25;;;;;;;;;;;20.20;46.90;;;;;;5100742;27;19919;-55
2023/05/06 01:28:51;;;;;;;;;;;20.20;46.90;;;;;;5083614;27;20291;-55
2023/05/06 01:31:20;;;;;;;;;;;20.30;46.80;;;;;;5095980;27;19922;-55
2023/05/06 01:33:59;;;;;;;;;;;20.50;46.70;;;;;;5094790;27;19920;-55
2023/05/06 01:36:32;;;;;;;;;;;20.60;46.60;;;;;;5116146;27;19975;-55
2023/05/06 01:39:16;;;;;;;;;;;20.70;46.40;;;;;;5115932;27;19956;-55
2023/05/06 01:41:41;;;;;;;;;;;20.70;46.20;;;;;;5117046;27;20449;-54
2023/05/06 01:44:07;;;;;;;;;;;20.70;46.80;;;;;;5098566;27;20040;-55
2023/05/06 01:46:32;;;;;;;;;;;20.70;46.20;;;;;;5096115;27;20058;-54
2023/05/06 01:48:59;;;;;;;;;;;20.70;46.20;;;;;;5117903;27;20295;-55
2023/05/06 01:51:24;;;;;;;;;;;20.70;46.20;;;;;;5099175;27;19916;-55
2023/05/06 01:53:50;;;;;;;;;;;20.60;46.30;;;;;;5116301;27;19938;-55
2023/05/06 01:56:15;;;;;;;;;;;20.60;46.30;;;;;;5115106;27;20010;-55
2023/05/06 01:58:41;;;;;;;;;;;20.60;46.30;;;;;;5096116;27;20394;-55
2023/05/06 02:01:06;;;;;;;;;;;20.50;46.10;;;;;;5112496;27;19966;-55
2023/05/06 02:03:32;;;;;;;;;;;20.50;46.30;;;;;;5115296;27;19916;-55
2023/05/06 02:05:57;;;;;;;;;;;20.50;46.20;;;;;;5115700;27;19956;-55
2023/05/06 02:08:23;;;;;;;;;;;20.40;46.20;;;;;;5094087;27;19958;-55
2023/05/06 02:10:49;;;;;;;;;;;20.30;46.30;;;;;;5114086;27;19916;-55
2023/05/06 02:13:15;;;;;;;;;;;20.30;46.40;;;;;;5111229;27;20423;-55
2023/05/06 02:15:41;;;;;;;;;;;20.20;46.60;;;;;;5094499;27;20002;-55
2023/05/06 02:18:07;;;;;;;;;;;20.20;46.60;;;;;;5097975;27;19918;-55
2023/05/06 02:20:32;;;;;;;;;;;20.10;46.60;;;;;;5096416;27;20363;-55
2023/05/06 02:22:58;;;;;;;;;;;20.10;46.70;;;;;;5113256;27;19930;-56
2023/05/06 02:25:23;;;;;;;;;;;20.10;46.90;;;;;;5113691;27;19927;-55
2023/05/06 02:27:48;;;;;;;;;;;20.00;46.90;;;;;;5113785;27;20383;-54
2023/05/06 02:30:14;;;;;;;;;;;20.00;47.00;;;;;;5117967;27;20321;-55
2023/05/06 02:32:40;;;;;;;;;;;20.00;47.00;;;;;;5105194;27;19915;-55
2023/05/06 02:35:06;;;;;;;;;;;19.90;47.10;;;;;;5120413;27;19911;-55
2023/05/06 02:37:31;;;;;;;;;;;19.90;47.10;;;;;;5116299;27;20008;-54
2023/05/06 02:39:57;;;;;;;;;;;19.90;47.10;;;;;;5106312;27;20398;-55
2023/05/06 02:42:22;;;;;;;;;;;19.90;47.10;;;;;;5119466;27;20456;-55
2023/05/06 02:44:48;;;;;;;;;;;19.90;47.10;;;;;;5118680;27;19919;-55
2023/05/06 02:47:13;;;;;;;;;;;19.90;47.20;;;;;;5118994;27;19918;-55
2023/05/06 02:49:38;;;;;;;;;;;19.90;47.20;;;;;;5118907;27;19908;-55
2023/05/06 02:52:04;;;;;;;;;;;19.90;47.10;;;;;;5117910;27;19971;-55
2023/05/06 02:54:29;;;;;;;;;;;19.90;47.10;;;;;;5118888;27;20001;-55
2023/05/06 02:56:55;;;;;;;;;;;19.90;47.20;;;;;;5095045;27;19912;-55
2023/05/06 02:59:20;;;;;;;;;;;19.90;47.20;;;;;;5111701;27;19925;-55
2023/05/06 03:01:46;;;;;;;;;;;19.90;47.20;;;;;;5119598;27;19912;-55
2023/05/06 03:04:11;;;;;;;;;;;19.90;47.20;;;;;;5115239;27;19930;-55
2023/05/06 03:06:37;;;;;;;;;;;19.90;47.30;;;;;;5111653;27;19919;-54
2023/05/06 03:09:03;;;;;;;;;;;19.80;47.20;;;;;;5112845;27;19924;-55
2023/05/06 03:11:30;;;;;;;;;;;19.90;47.30;;;;;;5110737;27;19918;-55
2023/05/06 03:13:56;;;;;;;;;;;19.80;47.10;;;;;;5094995;27;20030;-55
2023/05/06 03:16:21;;;;;;;;;;;19.90;47.20;;;;;;5116777;27;19916;-54
2023/05/06 03:18:46;;;;;;;;;;;19.90;47.20;;;;;;5104667;27;19911;-55
2023/05/06 03:21:13;;;;;;;;;;;19.90;47.10;;;;;;5090191;27;19919;-55
2023/05/06 03:23:38;;;;;;;;;;;19.90;47.00;;;;;;5096917;27;19915;-55
2023/05/06 03:26:03;;;;;;;;;;;20.00;47.00;;;;;;5115477;27;19933;-54
2023/05/06 03:28:29;;;;;;;;;;;20.00;47.00;;;;;;5114804;27;19959;-55
2023/05/06 03:30:55;;;;;;;;;;;20.10;46.70;;;;;;5114926;27;19974;-55
2023/05/06 03:33:20;;;;;;;;;;;20.10;46.90;;;;;;5113038;27;19922;-55
2023/05/06 03:35:45;;;;;;;;;;;20.10;46.70;;;;;;5111794;27;20403;-55
2023/05/06 03:38:11;;;;;;;;;;;20.20;46.70;;;;;;5116983;28;21657;-56
2023/05/06 03:40:36;;;;;;;;;;;20.20;46.50;;;;;;5085700;28;20428;-55
2023/05/06 03:43:02;;;;;;;;;;;20.10;46.50;;;;;;5096645;28;19911;-55
2023/05/06 03:45:27;;;;;;;;;;;20.10;46.60;;;;;;5117339;28;19919;-55
2023/05/06 03:47:53;;;;;;;;;;;20.00;46.70;;;;;;5114148;28;20382;-57
2023/05/06 03:50:18;;;;;;;;;;;20.00;46.70;;;;;;5081021;28;19915;-55
2023/05/06 03:52:44;;;;;;;;;;;20.00;46.90;;;;;;5096796;28;19919;-55
2023/05/06 03:55:09;;;;;;;;;;;19.90;46.90;;;;;;5112162;28;19915;-55
2023/05/06 03:57:35;;;;;;;;;;;19.90;47.00;;;;;;5094403;28;20498;-55
2023/05/06 04:00:00;;;;;;;;;;;19.80;47.00;;;;;;5115260;28;19923;-55
2023/05/06 04:02:28;;;;;;;;;;;19.80;47.10;;;;;;5112038;28;19947;-55
2023/05/06 04:04:53;;;;;;;;;;;19.80;47.10;;;;;;5112431;28;20004;-55
2023/05/06 04:07:19;;;;;;;;;;;19.80;47.20;;;;;;5113113;28;20492;-54
2023/05/06 04:09:44;;;;;;;;;;;19.80;47.30;;;;;;5115422;28;20597;-55
2023/05/06 04:12:10;;;;;;;;;;;19.80;47.30;;;;;;5108531;28;19969;-55
2023/05/06 04:14:35;;;;;;;;;;;19.70;47.30;;;;;;5111555;28;20630;-55
2023/05/06 04:17:00;;;;;;;;;;;19.70;47.40;;;;;;5113729;28;19915;-55
2023/05/06 04:19:26;;;;;;;;;;;19.70;47.30;;;;;;5113852;28;19943;-55
2023/05/06 04:21:51;;;;;;;;;;;19.70;47.30;;;;;;5112118;28;20616;-55
2023/05/06 04:24:17;;;;;;;;;;;19.70;47.30;;;;;;5111792;28;19959;-55
2023/05/06 04:26:42;;;;;;;;;;;19.70;47.40;;;;;;5112950;27;19919;-55
2023/05/06 04:29:08;;;;;;;;;;;19.60;47.40;;;;;;5120207;27;19915;-55
2023/05/06 04:31:33;;;;;;;;;;;19.70;47.40;;;;;;5120269;27;20402;-55
2023/05/06 04:33:59;;;;;;;;;;;19.70;47.40;;;;;;5119954;27;19915;-55
2023/05/06 04:36:25;;;;;;;;;;;19.60;47.30;;;;;;5092312;27;20287;-55
2023/05/06 04:38:52;;;;;;;;;;;19.70;47.40;;;;;;5104578;27;19923;-54
2023/05/06 04:41:17;;;;;;;;;;;19.70;47.30;;;;;;5123046;27;20003;-55
2023/05/06 04:43:43;;;;;;;;;;;19.70;47.40;;;;;;5116634;27;20105;-55
2023/05/06 04:46:09;;;;;;;;;;;19.70;47.30;;;;;;5117293;27;19911;-55
2023/05/06 04:48:35;;;;;;;;;;;19.70;47.20;;;;;;5123136;27;19959;-54
2023/05/06 04:51:03;;;;;;;;;;;19.70;47.20;;;;;;5107433;27;19923;-55
2023/05/06 04:53:28;;;;;;;;;;;19.70;47.20;;;;;;5122182;27;19970;-55
2023/05/06 04:55:54;;;;;;;;;;;19.70;47.00;;;;;;5117298;27;19957;-54
2023/05/06 04:58:19;;;;;;;;;;;19.70;47.00;;;;;;5114768;27;19935;-55
2023/05/06 05:00:45;;;;;;;;;;;19.70;47.00;;;;;;5115692;27;19924;-55
2023/05/06 05:03:10;;;;;;;;;;;19.80;47.10;;;;;;5120658;27;20011;-54
2023/05/06 05:05:36;;;;;;;;;;;19.80;47.00;;;;;;5118453;27;19927;-55
2023/05/06 05:08:01;;;;;;;;;;;19.80;47.00;;;;;;5115777;27;19947;-55
2023/05/06 05:10:27;;;;;;;;;;;19.80;47.00;;;;;;5115881;27;20383;-55
2023/05/06 05:12:52;;;;;;;;;;;19.90;46.90;;;;;;5098208;27;20299;-55
2023/05/06 05:15:19;;;;;;;;;;;19.90;47.60;;;;;;5096808;27;19912;-55
2023/05/06 05:17:45;;;;;;;;;;;19.90;47.00;;;;;;5115990;27;19919;-55
2023/05/06 05:20:10;;;;;;;;;;;19.80;46.90;;;;;;5117483;27;19926;-55
2023/05/06 05:22:36;;;;;;;;;;;19.80;47.00;;;;;;5118269;27;19915;-55
2023/05/06 05:25:01;;;;;;;;;;;19.80;47.00;;;;;;5117533;27;20000;-55
2023/05/06 05:27:27;;;;;;;;;;;19.70;47.00;;;;;;5120681;27;19915;-55
2023/05/06 05:29:52;;;;;;;;;;;19.70;47.00;;;;;;5123901;27;19954;-55
2023/05/06 05:32:18;;;;;;;;;;;19.60;47.00;;;;;;5122389;27;19922;-55
2023/05/06 05:34:44;;;;;;;;;;;19.70;47.20;;;;;;5122088;27;19912;-55
2023/05/06 05:37:10;;;;;;;;;;;19.60;47.30;;;;;;5116354;27;20383;-54
2023/05/06 05:39:35;;;;;;;;;;;19.60;47.20;;;;;;5121338;27;19924;-55
2023/05/06 05:42:01;;;;;;;;;;;19.60;47.30;;;;;;5115092;27;19976;-55
2023/05/06 05:44:26;;;;;;;;;;;19.50;47.20;;;;;;5113659;27;19912;-54
2023/05/06 05:46:52;;;;;;;;;;;19.50;47.30;;;;;;5117187;27;19921;-55
2023/05/06 05:49:17;;;;;;;;;;;19.50;47.40;;;;;;5120607;27;19911;-54
2023/05/06 05:51:43;;;;;;;;;;;19.40;47.50;;;;;;5115281;27;19915;-55
2023/05/06 05:54:08;;;;;;;;;;;19.50;47.60;;;;;;5113516;27;20046;-55
2023/05/06 05:56:34;;;;;;;;;;;19.40;47.40;;;;;;5113500;27;19961;-55
2023/05/06 05:58:59;;;;;;;;;;;19.50;47.60;;;;;;5116098;27;20429;-55
2023/05/06 06:01:25;;;;;;;;;;;19.40;47.60;;;;;;5111667;27;20526;-55
2023/05/06 06:03:51;;;;;;;;;;;19.40;47.50;;;;;;5114842;27;19918;-54
2023/05/06 06:06:16;;;;;;;;;;;19.50;47.50;;;;;;5120344;27;19918;-55
2023/05/06 06:08:42;;;;;;;;;;;19.40;47.50;;;;;;5114667;27;20655;-54
2023/05/06 06:11:07;;;;;;;;;;;19.50;47.60;;;;;;5113398;27;19919;-56
2023/05/06 06:13:33;;;;;;;;;;;19.50;48.30;;;;;;5092938;27;19983;-55
2023/05/06 06:15:58;;;;;;;;;;;19.40;47.50;;;;;;5101330;27;19939;-55
2023/05/06 06:18:23;;;;;;;;;;;19.50;47.50;;;;;;5118741;27;19959;-55
2023/05/06 06:20:49;;;;;;;;;;;19.50;47.40;;;;;;5117114;27;19919;-55
2023/05/06 06:23:14;;;;;;;;;;;19.50;47.40;;;;;;5113383;27;19926;-55
2023/05/06 06:25:40;;;;;;;;;;;19.50;47.40;;;;;;5115084;27;19915;-56
2023/05/06 06:28:05;;;;;;;;;;;19.50;47.30;;;;;;5112976;27;19919;-55
2023/05/06 06:30:31;;;;;;;;;;;19.60;47.40;;;;;;5101529;27;20003;-55
2023/05/06 06:32:57;;;;;;;;;;;19.60;47.40;;;;;;5117656;27;19916;-55
2023/05/06 06:35:23;;;;;;;;;;;19.60;47.40;;;;;;5125101;27;20283;-55
2023/05/06 06:37:48;;;;;;;;;;;19.60;47.30;;;;;;5118793;27;19915;-55
2023/05/06 06:40:14;;;;;;;;;;;19.60;47.30;;;;;;5118267;27;20295;-54
2023/05/06 06:42:39;;;;;;;;;;;19.60;47.30;;;;;;5117842;27;20345;-54
2023/05/06 06:45:06;;;;;;;;;;;19.60;47.30;;;;;;5098310;27;19921;-55
2023/05/06 06:47:31;;;;;;;;;;;19.60;47.40;;;;;;5101220;27;19919;-54
2023/05/06 06:49:57;;;;;;;;;;;19.50;47.40;;;;;;5121247;27;20342;-55
2023/05/06 06:52:22;;;;;;;;;;;19.60;47.50;;;;;;5120376;27;20074;-54
2023/05/06 06:54:48;;;;;;;;;;;19.60;47.50;;;;;;5120744;27;19944;-55
2023/05/06 06:57:13;;;;;;;;;;;19.50;47.60;;;;;;5115054;27;20006;-54
2023/05/06 06:59:38;;;;;;;;;;;19.40;47.50;;;;;;5093927;27;19965;-55
2023/05/06 07:02:04;;;;;;;;;;;19.50;47.60;;;;;;5120110;27;19916;-55
2023/05/06 07:04:29;;;;;;;;;;;19.50;47.70;;;;;;5115617;27;19920;-55
2023/05/06 07:06:55;;;;;;;;;;;19.40;47.60;;;;;;5112846;27;19968;-55
2023/05/06 07:09:20;;;;;;;;;;;19.40;47.70;;;;;;5111784;27;19923;-54
2023/05/06 07:11:46;;;;;;;;;;;19.40;47.70;;;;;;5094299;27;20317;-54
2023/05/06 07:14:11;;;;;;;;;;;19.40;47.80;;;;;;5110849;27;19951;-54
2023/05/06 07:16:37;;;;;;;;;;;19.30;47.90;;;;;;5093977;27;20356;-55
2023/05/06 07:19:02;;;;;;;;;;;19.40;47.90;;;;;;5112924;27;19943;-54
2023/05/06 07:21:31;;;;;;;;;;;19.30;47.90;;;;;;5112269;27;20021;-55
2023/05/06 07:23:56;;;;;;;;;;;19.30;48.00;;;;;;5109029;27;19998;-55
2023/05/06 07:26:22;;;;;;;;;;;19.30;48.00;;;;;;5097145;27;20062;-55
2023/05/06 07:28:47;;;;;;;;;;;19.30;48.10;;;;;;5096703;27;21206;-54
2023/05/06 07:31:14;;;;;;;;;;;19.30;48.10;;;;;;5095158;27;19927;-54
2023/05/06 07:33:40;;;;;;;;;;;19.30;48.10;;;;;;5094624;27;19915;-54
2023/05/06 07:36:05;;;;;;;;;;;19.30;48.20;;;;;;5115029;27;19919;-53
2023/05/06 07:38:31;;;;;;;;;;;19.20;48.10;;;;;;5116428;27;20053;-54
2023/05/06 07:40:56;;;;;;;;;;;19.30;48.20;;;;;;5095959;28;19919;-54
2023/05/06 07:43:22;;;;;;;;;;;19.20;48.10;;;;;;5112282;28;19933;-55
2023/05/06 07:45:47;;;;;;;;;;;19.30;48.20;;;;;;5106620;28;19915;-55
2023/05/06 07:48:13;;;;;;;;;;;19.20;48.10;;;;;;5113104;28;20006;-54
2023/05/06 07:50:38;;;;;;;;;;;19.20;48.00;;;;;;5112252;28;19922;-54
2023/05/06 07:53:04;;;;;;;;;;;19.20;48.00;;;;;;5113560;28;19919;-54
2023/05/06 07:55:30;;;;;;;;;;;19.20;48.00;;;;;;5110948;27;19923;-54
2023/05/06 07:57:55;;;;;;;;;;;19.30;48.10;;;;;;5112287;28;19926;-54
2023/05/06 08:00:20;;;;;;;;;;;19.20;48.00;;;;;;5111674;27;19919;-54
2023/05/06 08:02:48;;;;;;;;;;;19.30;48.00;;;;;;5113967;27;19962;-54
2023/05/06 08:05:13;;;;;;;;;;;19.20;47.80;;;;;;5118032;27;19980;-54
2023/05/06 08:07:40;;;;;;;;;;;19.20;48.00;;;;;;5117442;27;19955;-54
2023/05/06 08:10:06;;;;;;;;;;;19.30;48.10;;;;;;5118164;27;19937;-55
2023/05/06 08:12:31;;;;;;;;;;;19.20;48.00;;;;;;5117116;27;19915;-54
2023/05/06 08:14:57;;;;;;;;;;;19.30;48.10;;;;;;5093816;27;20441;-54
2023/05/06 08:17:22;;;;;;;;;;;19.30;48.10;;;;;;5123565;27;19915;-55
2023/05/06 08:19:48;;;;;;;;;;;19.30;48.10;;;;;;5124979;27;20305;-54
2023/05/06 08:22:15;;;;;;;;;;;19.20;48.00;;;;;;5084026;27;19982;-55
2023/05/06 08:24:40;;;;;;;;;;;19.30;48.20;;;;;;5118164;27;19920;-55
2023/05/06 08:27:06;;;;;;;;;;;19.20;48.10;;;;;;5111782;27;19918;-54
2023/05/06 08:29:31;;;;;;;;;;;19.20;48.10;;;;;;5106214;27;20318;-54
2023/05/06 08:31:56;;;;;;;;;;;19.20;48.30;;;;;;5123280;27;20412;-54
2023/05/06 08:34:22;;;;;;;;;;;19.30;48.30;;;;;;5116970;27;20276;-54
2023/05/06 08:36:47;;;;;;;;;;;19.20;48.30;;;;;;5104600;27;19911;-55
2023/05/06 08:39:16;;;;;;;;;;;19.20;48.30;;;;;;5117006;27;19915;-54
2023/05/06 08:41:44;;;;;;;;;;;19.20;48.30;;;;;;5119468;27;19919;-53
2023/05/06 08:44:09;;;;;;;;;;;19.20;48.40;;;;;;5101445;27;19919;-53
2023/05/06 08:46:35;;;;;;;;;;;19.20;48.30;;;;;;5104449;27;19922;-54
2023/05/06 08:49:01;;;;;;;;;;;19.10;48.30;;;;;;5118538;27;20515;-54
2023/05/06 08:51:27;;;;;;;;;;;19.10;48.40;;;;;;5101817;27;20196;-54
2023/05/06 08:53:52;;;;;;;;;;;19.10;48.30;;;;;;5120565;27;20367;-54
2023/05/06 08:56:18;;;;;;;;;;;19.10;48.40;;;;;;5106446;27;19912;-54
2023/05/06 08:58:44;;;;;;;;;;;19.10;48.40;;;;;;5095850;27;19919;-54
2023/05/06 09:01:10;;;;;;;;;;;19.10;48.50;;;;;;5118205;27;19968;-54
2023/05/06 09:03:35;;;;;;;;;;;19.10;48.50;;;;;;5085991;27;19950;-54
2023/05/06 09:06:01;;;;;;;;;;;19.10;48.50;;;;;;5121854;27;19920;-55
2023/05/06 09:08:26;;;;;;;;;;;19.10;48.50;;;;;;5122865;27;19919;-54
2023/05/06 09:10:52;;;;;;;;;;;19.10;48.50;;;;;;5121968;27;19911;-54
2023/05/06 09:13:18;;;;;;;;;;;19.20;48.60;;;;;;5100643;27;19951;-54
2023/05/06 09:15:46;;;;;;;;;;;19.20;48.40;;;;;;5117134;27;19912;-54
2023/05/06 09:18:12;;;;;;;;;;;19.30;48.50;;;;;;5103791;27;19911;-54
2023/05/06 09:20:44;;;;;;;;;;;19.40;48.50;;;;;;5129230;27;19919;-54
2023/05/06 09:23:10;;;;;;;;;;;19.50;48.30;;;;;;5127570;27;19939;-54
2023/05/06 09:25:35;;;;;;;;;;;19.60;48.20;;;;;;5107657;27;19916;-54
2023/05/06 09:28:04;;;;;;;;;;;19.70;47.80;;;;;;5129359;27;20007;-54
2023/05/06 09:30:30;;;;;;;;;;;20.00;47.80;;;;;;5127851;27;19950;-54
2023/05/06 09:32:55;;;;;;;;;;;20.10;47.50;;;;;;5111686;27;19911;-53
2023/05/06 09:35:21;;;;;;;;;;;20.20;47.20;;;;;;5131926;27;19912;-53
2023/05/06 09:37:46;;;;;;;;;;;20.30;47.00;;;;;;5109140;27;20407;-53
2023/05/06 09:40:12;;;;;;;;;;;20.30;47.30;;;;;;5104069;27;19920;-54
2023/05/06 09:42:37;;;;;;;;;;;20.30;47.20;;;;;;5098211;27;20010;-53
2023/05/06 09:45:03;;;;;;;;;;;20.30;47.50;;;;;;5114727;27;20323;-53
2023/05/06 09:47:31;;;;;;;;;;;20.40;47.90;;;;;;5101399;27;20268;-53
2023/05/06 09:49:58;;;;;;;;;;;20.50;48.00;;;;;;5117997;27;20312;-54
2023/05/06 09:52:24;;;;;;;;;;;20.50;47.70;;;;;;5119089;27;19915;-54
2023/05/06 09:54:50;;;;;;;;;;;20.50;48.00;;;;;;5099409;27;19915;-54
2023/05/06 09:57:16;;;;;;;;;;;20.50;48.30;;;;;;5105813;27;20003;-54
2023/05/06 09:59:42;;;;;;;;;;;20.50;47.90;;;;;;5122702;27;19920;-54
2023/05/06 10:02:07;;;;;;;;;;;20.40;47.60;;;;;;5123490;27;19912;-54
2023/05/06 10:04:33;;;;;;;;;;;20.40;47.90;;;;;;5120924;27;20295;-54
2023/05/06 10:06:59;;;;;;;;;;;20.30;48.00;;;;;;5106683;27;19935;-54
2023/05/06 10:09:25;;;;;;;;;;;20.30;47.70;;;;;;5121593;27;19916;-56
2023/05/06 10:11:51;;;;;;;;;;;20.20;47.80;;;;;;5116530;27;20359;-54
2023/05/06 10:14:17;;;;;;;;;;;20.20;48.10;;;;;;5100413;27;19916;-54
2023/05/06 10:16:42;;;;;;;;;;;20.20;48.30;;;;;;5116362;27;19955;-54
2023/05/06 10:19:08;;;;;;;;;;;20.20;48.30;;;;;;5124496;27;19912;-55
2023/05/06 10:21:34;;;;;;;;;;;20.20;48.50;;;;;;5116512;27;20375;-54
2023/05/06 10:24:06;;;;;;;;;;;20.20;48.60;;;;;;5121074;27;19922;-54
2023/05/06 10:26:31;;;;;;;;;;;20.20;48.80;;;;;;5119122;27;19956;-53
2023/05/06 10:28:57;;;;;;;;;;;20.20;48.80;;;;;;5119643;27;19915;-54
2023/05/06 10:31:23;;;;;;;;;;;20.20;48.90;;;;;;5100449;27;22860;-54
2023/05/06 10:33:48;;;;;;;;;;;20.30;49.20;;;;;;5119669;27;19912;-54
2023/05/06 10:36:21;;;;;;;;;;;20.30;49.00;;;;;;5120851;27;19950;-54
2023/05/06 10:38:57;;;;;;;;;;;20.30;49.10;;;;;;5099114;27;19912;-53
2023/05/06 10:41:23;;;;;;;;;;;20.40;49.10;;;;;;5119465;27;19924;-54
2023/05/06 10:43:55;;;;;;;;;;;20.50;48.60;;;;;;5115927;27;19919;-54
2023/05/06 10:46:23;;;;;;;;;;;20.60;48.60;;;;;;5111591;27;20279;-54
2023/05/06 10:49:10;;;;;;;;;;;20.80;48.50;;;;;;5102595;27;19912;-54
2023/05/06 10:51:36;;;;;;;;;;;20.90;48.00;;;;;;5118626;27;20413;-54
2023/05/06 10:54:03;;;;;;;;;;;21.00;47.90;;;;;;5123872;27;19918;-54
2023/05/06 10:56:29;;;;;;;;;;;21.10;47.60;;;;;;5118556;27;19934;-54
2023/05/06 10:58:54;;;;;;;;;;;21.10;48.10;;;;;;5122584;27;20056;-54
2023/05/06 11:01:21;;;;;;;;;;;21.20;48.00;;;;;;5102126;27;20006;-54
2023/05/06 11:03:46;;;;;;;;;;;21.20;48.10;;;;;;5119002;27;19912;-54
2023/05/06 11:06:11;;;;;;;;;;;21.20;48.10;;;;;;5121102;27;19932;-54
2023/05/06 11:08:37;;;;;;;;;;;21.30;48.10;;;;;;5116277;27;20032;-54
2023/05/06 11:11:21;;;;;;;;;;;21.20;48.00;;;;;;5118930;27;19920;-53
2023/05/06 11:13:49;;;;;;;;;;;21.20;48.00;;;;;;5106657;27;19956;-54
2023/05/06 11:16:16;;;;;;;;;;;21.20;48.20;;;;;;5108216;27;19916;-54
2023/05/06 11:18:41;;;;;;;;;;;21.10;48.00;;;;;;5118003;27;19963;-54
2023/05/06 11:21:07;;;;;;;;;;;21.00;48.50;;;;;;5120840;27;19916;-54
2023/05/06 11:23:42;;;;;;;;;;;21.00;47.90;;;;;;5116192;27;20419;-54
2023/05/06 11:26:07;;;;;;;;;;;20.90;48.30;;;;;;5119939;27;20299;-54
2023/05/06 11:28:33;;;;;;;;;;;20.90;48.70;;;;;;5123703;27;19912;-55
2023/05/06 11:30:59;;;;;;;;;;;20.80;48.30;;;;;;5125084;27;19918;-53
2023/05/06 11:33:24;;;;;;;;;;;20.80;48.30;;;;;;5125028;27;20581;-58
2023/05/06 11:35:50;;;;;;;;;;;20.80;48.80;;;;;;5099808;28;19998;-54
2023/05/06 11:38:15;;;;;;;;;;;20.80;48.50;;;;;;5123381;27;19915;-53
2023/05/06 11:40:41;;;;;;;;;;;20.80;48.70;;;;;;5114894;27;19932;-54
2023/05/06 11:43:10;;;;;;;;;;;20.90;48.80;;;;;;5120253;28;19911;-53
2023/05/06 11:45:40;;;;;;;;;;;20.90;48.60;;;;;;5113492;28;19949;-54
2023/05/06 11:48:05;;;;;;;;;;;20.80;48.60;;;;;;5106456;28;19915;-54
2023/05/06 11:50:30;;;;;;;;;;;20.80;48.50;;;;;;5121085;28;20417;-54
2023/05/06 11:52:56;;;;;;;;;;;20.80;49.10;;;;;;5120056;28;20328;-54
2023/05/06 11:55:22;;;;;;;;;;;20.80;48.60;;;;;;5101624;28;20328;-54
2023/05/06 11:57:47;;;;;;;;;;;20.80;48.70;;;;;;5111022;28;19908;-54
2023/05/06 12:00:13;;;;;;;;;;;20.90;48.90;;;;;;5119108;28;20387;-54
2023/05/06 12:02:39;;;;;;;;;;;20.90;48.40;;;;;;5124050;28;20387;-54
2023/05/06 12:05:05;;;;;;;;;;;20.90;48.50;;;;;;5129454;28;19923;-53
2023/05/06 12:07:31;;;;;;;;;;;20.90;48.40;;;;;;5128008;28;20283;-54
2023/05/06 12:09:57;;;;;;;;;;;20.90;48.80;;;;;;5127231;28;19911;-54
2023/05/06 12:12:23;;;;;;;;;;;20.90;48.80;;;;;;5107134;28;19976;-53
2023/05/06 12:14:49;;;;;;;;;;;21.00;48.70;;;;;;5110271;28;20372;-54
2023/05/06 12:17:15;;;;;;;;;;;21.10;48.80;;;;;;5103161;28;19998;-54
2023/05/06 12:19:40;;;;;;;;;;;21.10;48.70;;;;;;5099785;28;19998;-54
2023/05/06 12:22:12;;;;;;;;;;;21.20;48.70;;;;;;5098849;28;20010;-55
2023/05/06 12:24:38;;;;;;;;;;;21.10;48.60;;;;;;5132150;28;19957;-54
2023/05/06 12:27:03;;;;;;;;;;;21.10;48.60;;;;;;5129447;28;19912;-54
2023/05/06 12:29:30;;;;;;;;;;;21.10;48.60;;;;;;5105239;28;19915;-54
2023/05/06 12:32:06;;;;;;;;;;;21.10;48.30;;;;;;5107012;28;19951;-54
2023/05/06 12:34:38;;;;;;;;;;;21.10;48.80;;;;;;5116475;28;19926;-54
2023/05/06 12:37:04;;;;;;;;;;;21.10;48.50;;;;;;5121088;28;19912;-54
2023/05/06 12:39:36;;;;;;;;;;;21.10;48.50;;;;;;5120304;28;20370;-54
2023/05/06 12:42:02;;;;;;;;;;;21.10;48.70;;;;;;5113864;28;19937;-54
2023/05/06 12:44:31;;;;;;;;;;;21.10;48.70;;;;;;5117041;28;19911;-54
2023/05/06 12:46:57;;;;;;;;;;;21.10;48.60;;;;;;5116242;28;20374;-54
2023/05/06 12:49:22;;;;;;;;;;;21.00;48.40;;;;;;5117857;27;19912;-54
2023/05/06 12:52:07;;;;;;;;;;;21.00;48.60;;;;;;5123475;27;20272;-54
2023/05/06 12:54:32;;;;;;;;;;;20.90;48.60;;;;;;5105014;27;19982;-54
2023/05/06 12:56:58;;;;;;;;;;;20.90;49.00;;;;;;5117970;27;19919;-54
2023/05/06 12:59:23;;;;;;;;;;;20.90;49.00;;;;;;5115953;27;19916;-54
2023/05/06 13:01:49;;;;;;;;;;;20.80;48.80;;;;;;5117652;27;19968;-54
2023/05/06 13:04:14;;;;;;;;;;;20.80;49.10;;;;;;5122701;27;19949;-55
2023/05/06 13:06:40;;;;;;;;;;;20.70;49.00;;;;;;5125866;27;19915;-54
2023/05/06 13:09:05;;;;;;;;;;;20.70;49.10;;;;;;5115710;27;19920;-54
2023/05/06 13:11:30;;;;;;;;;;;20.60;49.40;;;;;;5118028;27;19994;-54
2023/05/06 13:13:56;;;;;;;;;;;20.50;49.50;;;;;;5117361;27;19908;-54
2023/05/06 13:16:21;;;;;;;;;;;20.50;49.50;;;;;;5118561;27;19930;-55
2023/05/06 13:18:47;;;;;;;;;;;20.40;49.80;;;;;;5127186;27;19912;-54
2023/05/06 13:21:13;;;;;;;;;;;20.30;50.00;;;;;;5099610;27;20391;-54
2023/05/06 13:23:45;;;;;;;;;;;20.30;49.90;;;;;;5118471;27;20448;-54
2023/05/06 13:26:11;;;;;;;;;;;20.30;50.30;;;;;;5124455;27;19912;-54
2023/05/06 13:28:38;;;;;;;;;;;20.20;50.30;;;;;;5120860;27;19930;-54
2023/05/06 13:31:03;;;;;;;;;;;20.20;50.60;;;;;;5121974;27;19908;-54
2023/05/06 13:33:29;;;;;;;;;;;20.10;50.10;;;;;;5121425;27;20299;-54
2023/05/06 13:35:54;;;;;;;;;;;20.10;50.40;;;;;;5102425;27;19956;-54
2023/05/06 13:38:20;;;;;;;;;;;20.10;50.30;;;;;;5126062;27;20038;-53
2023/05/06 13:40:48;;;;;;;;;;;20.10;50.40;;;;;;5127894;27;20479;-54
2023/05/06 13:43:14;;;;;;;;;;;20.00;50.60;;;;;;5111038;27;19911;-53
2023/05/06 13:45:39;;;;;;;;;;;20.00;50.60;;;;;;5125732;27;19975;-54
2023/05/06 13:48:05;;;;;;;;;;;20.00;50.70;;;;;;5124758;27;20294;-54
2023/05/06 13:50:30;;;;;;;;;;;19.90;50.50;;;;;;5128105;27;19912;-54
2023/05/06 13:52:56;;;;;;;;;;;20.00;50.70;;;;;;5123341;27;19945;-54
2023/05/06 13:55:21;;;;;;;;;;;19.90;50.60;;;;;;5118043;27;19928;-54
2023/05/06 13:57:47;;;;;;;;;;;19.90;50.60;;;;;;5122092;27;19919;-54
2023/05/06 14:00:12;;;;;;;;;;;19.90;50.50;;;;;;5103706;27;19915;-54
2023/05/06 14:02:38;;;;;;;;;;;20.00;50.40;;;;;;5106215;27;19912;-54
2023/05/06 14:05:03;;;;;;;;;;;20.10;50.10;;;;;;5116576;27;20364;-53
2023/05/06 14:07:30;;;;;;;;;;;20.20;50.00;;;;;;5102776;28;19912;-54
2023/05/06 14:09:55;;;;;;;;;;;20.30;50.00;;;;;;5124999;27;19919;-54